Time;durP1;ratioP1;P1;durP2;ratioP2;P2;SDS_P1;SDS_P2;PMS_P1;PMS_P2;Temp;Humidity;BMP_temperature;BMP_pressure;BME280_temperature;BME280_humidity;BME280_pressure;Samples;Min_cycle;Max_cycle;Signal;HPM_P1;HPM_P2
2022/12/31 00:01:56;;;;;;;10.20;6.93;;;10.80;1.00;;;;;;5052508;28;20163;-69
2022/12/31 00:04:22;;;;;;;6.37;5.87;;;10.80;1.00;;;;;;5051594;28;20418;-69
2022/12/31 00:06:48;;;;;;;14.00;6.80;;;10.90;1.00;;;;;;5052210;28;20174;-68
2022/12/31 00:09:14;;;;;;;7.40;6.20;;;10.90;1.00;;;;;;5052359;28;20217;-70
2022/12/31 00:11:39;;;;;;;7.23;6.53;;;11.00;1.00;;;;;;5051305;28;20177;-72
2022/12/31 00:14:06;;;;;;;8.50;7.40;;;11.00;1.00;;;;;;5052157;28;20521;-71
2022/12/31 00:16:36;;;;;;;7.03;6.30;;;11.00;1.00;;;;;;5050639;28;20531;-72
2022/12/31 00:19:05;;;;;;;6.53;5.93;;;11.00;1.00;;;;;;5054153;28;20843;-68
2022/12/31 00:21:32;;;;;;;10.63;6.30;;;11.00;1.00;;;;;;5056044;28;20899;-68
2022/12/31 00:23:58;;;;;;;6.47;5.87;;;11.10;1.00;;;;;;5055907;28;20423;-69
2022/12/31 00:26:27;;;;;;;7.73;6.07;;;11.00;1.00;;;;;;5054047;28;20399;-72
2022/12/31 00:28:55;;;;;;;8.77;6.57;;;11.10;1.00;;;;;;5055885;28;20505;-69
2022/12/31 00:31:29;;;;;;;9.83;6.97;;;11.10;1.00;;;;;;5055921;28;20401;-68
2022/12/31 00:33:56;;;;;;;8.93;5.57;;;11.10;1.00;;;;;;5055656;28;20445;-73
2022/12/31 00:36:31;;;;;;;13.60;6.37;;;11.10;1.00;;;;;;5055006;28;20424;-73
2022/12/31 00:38:58;;;;;;;7.57;5.50;;;11.10;1.00;;;;;;5055743;28;20374;-73
2022/12/31 00:41:25;;;;;;;7.20;5.33;;;11.20;1.00;;;;;;5054137;28;20837;-69
2022/12/31 00:43:51;;;;;;;10.90;5.67;;;11.20;1.00;;;;;;5054263;28;20751;-73
2022/12/31 00:46:17;;;;;;;7.00;5.73;;;11.20;1.00;;;;;;5054777;28;20486;-69
2022/12/31 00:48:43;;;;;;;6.53;4.90;;;11.20;1.00;;;;;;5055333;28;20681;-73
2022/12/31 00:51:11;;;;;;;7.40;5.60;;;11.20;1.00;;;;;;5055634;28;20873;-73
2022/12/31 00:53:37;;;;;;;7.70;5.23;;;11.20;99.90;;;;;;5055314;28;20404;-70
2022/12/31 00:56:11;;;;;;;12.43;6.70;;;11.20;99.90;;;;;;5054755;28;20394;-68
2022/12/31 00:58:37;;;;;;;9.40;5.23;;;11.20;99.90;;;;;;5055177;28;20384;-72
2022/12/31 01:01:20;;;;;;;6.17;5.53;;;11.20;99.90;;;;;;5055114;28;20488;-73
2022/12/31 01:03:47;;;;;;;6.90;5.27;;;11.20;99.90;;;;;;5055217;28;20736;-68
2022/12/31 01:06:13;;;;;;;6.07;5.57;;;11.20;99.90;;;;;;5054586;28;20387;-73
2022/12/31 01:08:39;;;;;;;9.60;4.50;;;11.20;99.90;;;;;;5055012;28;20445;-73
2022/12/31 01:11:18;;;;;;;18.33;4.80;;;11.30;99.90;;;;;;5053851;28;20175;-73
2022/12/31 01:13:59;;;;;;;8.67;5.20;;;11.30;99.90;;;;;;5055012;28;20409;-73
2022/12/31 01:16:36;;;;;;;4.70;4.23;;;11.20;99.90;;;;;;5054445;28;20416;-71
2022/12/31 01:19:08;;;;;;;7.97;5.00;;;11.20;99.90;;;;;;5054983;28;20445;-71
2022/12/31 01:21:36;;;;;;;7.07;4.17;;;11.20;99.90;;;;;;5054539;28;20399;-71
2022/12/31 01:24:02;;;;;;;7.53;5.50;;;11.20;99.90;;;;;;5054671;28;20902;-72
2022/12/31 01:26:29;;;;;;;13.97;5.50;;;11.20;99.90;;;;;;5054364;28;20410;-73
2022/12/31 01:28:55;;;;;;;10.37;4.73;;;11.20;99.90;;;;;;5053164;28;20427;-73
2022/12/31 01:31:21;;;;;;;7.23;5.00;;;11.10;99.90;;;;;;5054361;28;20487;-69
2022/12/31 01:33:48;;;;;;;6.77;5.07;;;11.20;99.90;;;;;;5054851;28;20423;-69
2022/12/31 01:36:23;;;;;;;7.43;4.63;;;11.20;99.90;;;;;;5053919;28;20364;-69
2022/12/31 01:38:49;;;;;;;7.60;4.70;;;11.20;99.90;;;;;;5053030;28;20423;-69
2022/12/31 01:41:18;;;;;;;4.40;3.30;;;11.30;99.90;;;;;;5054458;28;20379;-70
2022/12/31 01:43:56;;;;;;;7.90;4.40;;;11.20;99.90;;;;;;5054523;28;20384;-67
2022/12/31 01:46:27;;;;;;;6.40;4.23;;;11.20;99.90;;;;;;5053770;28;20392;-67
2022/12/31 01:48:59;;;;;;;4.67;3.53;;;11.20;99.90;;;;;;5054174;28;20430;-69
2022/12/31 01:51:27;;;;;;;6.67;4.30;;;11.20;99.90;;;;;;5054133;28;20379;-69
2022/12/31 01:53:54;;;;;;;4.50;3.70;;;11.20;99.90;;;;;;5054332;28;20416;-68
2022/12/31 01:56:22;;;;;;;7.43;6.17;;;11.20;99.90;;;;;;5053275;28;20401;-71
2022/12/31 01:58:51;;;;;;;5.90;3.77;;;11.20;99.90;;;;;;5054143;28;20382;-71
2022/12/31 02:01:30;;;;;;;12.47;5.50;;;11.20;99.90;;;;;;5053939;28;20413;-68
2022/12/31 02:03:57;;;;;;;8.87;4.07;;;11.30;99.90;;;;;;5054024;28;20808;-68
2022/12/31 02:06:36;;;;;;;7.17;5.87;;;11.20;99.90;;;;;;5052270;28;20411;-66
2022/12/31 02:09:02;;;;;;;6.03;4.27;;;11.20;99.90;;;;;;5054025;28;20498;-71
2022/12/31 02:11:36;;;;;;;4.10;3.70;;;11.20;99.90;;;;;;5052649;28;20483;-73
2022/12/31 02:14:48;;;;;;;3.90;3.30;;;11.20;99.90;;;;;;5053614;28;20406;-73
2022/12/31 02:17:51;;;;;;;4.50;3.90;;;11.20;99.90;;;;;;5051584;28;20403;-69
2022/12/31 02:20:37;;;;;;;3.93;3.50;;;11.20;99.90;;;;;;5053778;28;20424;-68
2022/12/31 02:23:18;;;;;;;10.13;3.27;;;11.20;99.90;;;;;;5041749;28;20916;-73
2022/12/31 02:26:21;;;;;;;4.37;3.97;;;11.20;99.90;;;;;;5052965;28;20456;-68
2022/12/31 02:29:05;;;;;;;4.83;3.60;;;11.20;99.90;;;;;;5053519;28;20449;-68
2022/12/31 02:31:42;;;;;;;8.57;3.57;;;11.20;99.90;;;;;;5053446;28;20849;-73
2022/12/31 02:34:17;;;;;;;13.33;4.07;;;11.20;99.90;;;;;;5053016;28;20405;-69
2022/12/31 02:36:45;;;;;;;11.57;3.60;;;11.20;99.90;;;;;;5053428;28;20484;-67
2022/12/31 02:39:12;;;;;;;4.27;2.93;;;11.10;99.90;;;;;;5053587;28;20871;-71
2022/12/31 02:41:50;;;;;;;6.07;3.50;;;11.10;99.90;;;;;;5052481;28;20414;-74
2022/12/31 02:44:25;;;;;;;7.57;3.73;;;11.20;99.90;;;;;;5053119;28;20413;-73
2022/12/31 02:46:57;;;;;;;7.13;3.07;;;11.10;99.90;;;;;;5052045;28;21137;-66
2022/12/31 02:49:46;;;;;;;5.27;3.00;;;11.10;99.90;;;;;;5052984;28;20412;-68
2022/12/31 02:52:30;;;;;;;3.33;3.03;;;11.10;99.90;;;;;;5053225;28;20383;-67
2022/12/31 02:55:33;;;;;;;7.13;2.90;;;11.10;99.90;;;;;;5051415;28;20436;-67
2022/12/31 03:02:12;;;;;;;6.43;3.47;;;11.10;99.90;;;;;;5053118;28;20404;-67
2022/12/31 03:06:50;;;;;;;4.20;2.97;;;11.10;99.90;;;;;;5053058;28;20819;-71
2022/12/31 03:09:15;;;;;;;8.67;2.80;;;11.10;99.90;;;;;;5052670;28;20423;-69
2022/12/31 03:14:26;;;;;;;5.47;3.00;;;11.10;99.90;;;;;;5052404;28;20693;-67
2022/12/31 03:16:51;;;;;;;4.80;2.93;;;11.10;99.90;;;;;;5052963;28;20488;-67
2022/12/31 03:27:29;;;;;;;6.07;2.97;;;11.10;99.90;;;;;;5052591;28;20471;-67
2022/12/31 03:29:55;;;;;;;5.67;2.97;;;11.10;99.90;;;;;;5052734;28;20508;-71
2022/12/31 03:32:20;;;;;;;10.93;3.77;;;11.10;99.90;;;;;;5053030;28;20619;-67
2022/12/31 03:34:46;;;;;;;5.60;2.70;;;11.10;99.90;;;;;;5052039;28;20194;-67
2022/12/31 03:37:12;;;;;;;3.00;2.47;;;11.10;99.90;;;;;;5052829;28;20163;-71
2022/12/31 03:39:37;;;;;;;3.87;2.67;;;11.10;99.90;;;;;;5052757;28;20163;-72
2022/12/31 03:42:03;;;;;;;17.43;4.47;;;11.00;99.90;;;;;;5051649;28;20174;-67
2022/12/31 03:44:29;;;;;;;4.37;2.97;;;11.10;99.90;;;;;;5051793;28;20473;-69
2022/12/31 03:46:54;;;;;;;5.20;2.97;;;11.10;99.90;;;;;;5052711;28;20171;-67
2022/12/31 03:49:20;;;;;;;3.87;2.40;;;11.00;99.90;;;;;;5052611;28;20189;-69
2022/12/31 03:51:46;;;;;;;6.70;3.13;;;11.00;99.90;;;;;;5051641;28;20665;-68
2022/12/31 03:54:11;;;;;;;10.43;2.87;;;11.00;99.90;;;;;;5055383;28;20612;-67
2022/12/31 03:56:37;;;;;;;4.40;2.70;;;11.00;99.90;;;;;;5056049;28;20181;-69
2022/12/31 03:59:03;;;;;;;6.43;3.27;;;11.00;99.90;;;;;;5056629;28;20212;-73
2022/12/31 04:01:28;;;;;;;5.30;3.47;;;11.00;99.90;;;;;;5056443;28;20220;-67
2022/12/31 04:03:54;;;;;;;5.37;3.97;;;11.00;99.90;;;;;;5056431;28;20611;-67
2022/12/31 04:06:20;;;;;;;5.27;3.43;;;10.90;99.90;;;;;;5055678;28;20182;-67
2022/12/31 04:08:45;;;;;;;4.57;4.17;;;11.00;99.90;;;;;;5056210;28;20190;-73
2022/12/31 04:11:11;;;;;;;7.07;4.37;;;11.00;99.90;;;;;;5056344;28;20232;-68
2022/12/31 04:13:37;;;;;;;6.90;4.27;;;11.00;99.90;;;;;;5056125;28;20619;-69
2022/12/31 04:16:02;;;;;;;10.27;4.80;;;10.90;99.90;;;;;;5055480;28;20276;-69
2022/12/31 04:18:28;;;;;;;5.30;3.80;;;11.00;99.90;;;;;;5056149;28;20178;-72
2022/12/31 04:20:54;;;;;;;5.97;3.53;;;10.90;99.90;;;;;;5055710;28;20182;-70
2022/12/31 04:23:19;;;;;;;4.67;4.20;;;10.90;99.90;;;;;;5056011;28;20628;-70
2022/12/31 04:25:45;;;;;;;5.20;3.70;;;10.90;99.90;;;;;;5055332;28;20190;-69
2022/12/31 04:28:11;;;;;;;3.43;3.07;;;11.00;99.90;;;;;;5054512;28;20193;-70
2022/12/31 04:30:36;;;;;;;5.23;3.50;;;11.00;99.90;;;;;;5055818;28;20166;-69
2022/12/31 04:33:02;;;;;;;4.60;3.03;;;11.00;99.90;;;;;;5055995;28;20181;-73
2022/12/31 04:35:28;;;;;;;7.13;3.20;;;11.00;99.90;;;;;;5055048;28;20194;-68
2022/12/31 04:37:53;;;;;;;5.17;3.57;;;11.00;99.90;;;;;;5055603;28;20175;-69
2022/12/31 04:40:19;;;;;;;10.27;3.90;;;11.00;99.90;;;;;;5055720;28;20177;-67
2022/12/31 04:42:45;;;;;;;8.60;3.73;;;11.00;99.90;;;;;;5055611;28;20171;-67
2022/12/31 04:45:11;;;;;;;3.57;3.30;;;11.00;99.90;;;;;;5054951;28;20199;-67
2022/12/31 04:47:36;;;;;;;6.17;2.87;;;11.00;99.90;;;;;;5054244;28;20666;-70
2022/12/31 04:50:02;;;;;;;7.97;4.20;;;11.00;99.90;;;;;;5054140;28;20536;-71
2022/12/31 04:52:28;;;;;;;4.20;3.33;;;11.10;99.90;;;;;;5055518;28;20249;-68
2022/12/31 04:54:54;;;;;;;4.37;3.90;;;11.00;99.90;;;;;;5054368;28;20457;-67
2022/12/31 04:57:19;;;;;;;8.80;4.20;;;11.10;99.90;;;;;;5055426;28;20163;-67
2022/12/31 04:59:45;;;;;;;6.97;5.20;;;11.10;99.90;;;;;;5054422;28;20627;-74
2022/12/31 05:02:11;;;;;;;5.93;3.50;;;11.10;99.90;;;;;;5055289;28;20175;-72
2022/12/31 05:04:36;;;;;;;4.77;3.70;;;11.10;99.90;;;;;;5053310;28;20285;-71
2022/12/31 05:07:02;;;;;;;5.50;5.00;;;11.00;99.90;;;;;;5055281;28;20171;-74
2022/12/31 05:09:28;;;;;;;6.70;5.37;;;11.00;99.90;;;;;;5055118;28;20230;-67
2022/12/31 05:11:54;;;;;;;11.37;4.87;;;11.00;99.90;;;;;;5055171;28;20171;-72
2022/12/31 05:14:20;;;;;;;13.40;5.10;;;11.00;99.90;;;;;;5054422;28;20776;-73
2022/12/31 05:16:45;;;;;;;5.37;4.80;;;11.00;99.90;;;;;;5054887;28;20206;-70
2022/12/31 05:19:11;;;;;;;5.77;5.30;;;11.00;99.90;;;;;;5055028;28;20197;-67
2022/12/31 05:21:37;;;;;;;9.10;6.37;;;11.00;99.90;;;;;;5054959;28;20615;-73
2022/12/31 05:24:03;;;;;;;17.43;7.10;;;11.10;99.90;;;;;;5054679;28;20281;-69
2022/12/31 05:26:29;;;;;;;8.93;5.63;;;11.10;99.90;;;;;;5054348;28;20506;-74
2022/12/31 05:28:55;;;;;;;8.80;6.27;;;11.00;99.90;;;;;;5054386;28;20915;-74
2022/12/31 05:31:21;;;;;;;6.83;6.13;;;11.10;99.90;;;;;;5054817;28;20174;-66
2022/12/31 05:33:47;;;;;;;7.87;6.73;;;11.00;99.90;;;;;;5053364;28;20647;-71
2022/12/31 05:36:13;;;;;;;10.13;7.03;;;11.10;99.90;;;;;;5054039;28;20376;-68
2022/12/31 05:38:39;;;;;;;7.93;5.87;;;11.10;99.90;;;;;;5053328;28;20175;-67
2022/12/31 05:41:06;;;;;;;7.43;6.37;;;11.10;99.90;;;;;;5054572;28;20402;-71
2022/12/31 05:43:32;;;;;;;10.93;6.90;;;11.10;99.90;;;;;;5054590;28;20202;-66
2022/12/31 05:46:03;;;;;;;10.63;6.53;;;11.10;99.90;;;;;;5053669;28;20514;-67
2022/12/31 05:48:29;;;;;;;6.70;5.53;;;11.10;99.90;;;;;;5054026;28;20479;-67
2022/12/31 05:50:55;;;;;;;6.90;6.20;;;11.10;99.90;;;;;;5054202;28;20426;-67
2022/12/31 05:53:21;;;;;;;6.70;6.10;;;11.10;99.90;;;;;;5054367;28;20364;-67
2022/12/31 05:55:47;;;;;;;8.63;6.27;;;11.10;99.90;;;;;;5053668;28;20407;-71
2022/12/31 05:58:14;;;;;;;9.87;5.50;;;11.10;99.90;;;;;;5054251;28;20706;-71
2022/12/31 06:00:41;;;;;;;6.53;5.83;;;11.20;99.90;;;;;;5054049;28;20371;-67
2022/12/31 06:03:06;;;;;;;7.57;5.70;;;11.20;99.90;;;;;;5054099;28;20468;-71
2022/12/31 06:05:32;;;;;;;7.00;4.87;;;11.20;99.90;;;;;;5053042;28;20828;-66
2022/12/31 06:07:58;;;;;;;8.30;5.90;;;11.20;99.90;;;;;;5054002;28;20560;-71
2022/12/31 06:10:23;;;;;;;6.27;5.67;;;11.20;1.00;;;;;;5052838;28;20175;-72
2022/12/31 06:12:49;;;;;;;6.43;5.67;;;11.20;1.00;;;;;;5052628;28;20553;-67
2022/12/31 06:15:15;;;;;;;9.13;4.23;;;11.20;1.00;;;;;;5052885;28;20257;-71
2022/12/31 06:17:40;;;;;;;5.17;4.67;;;11.20;1.00;;;;;;5054006;28;20643;-71
2022/12/31 06:20:07;;;;;;;6.80;4.40;;;11.30;1.00;;;;;;5052555;28;20178;-71
2022/12/31 06:22:32;;;;;;;6.90;4.97;;;11.30;1.00;;;;;;5053804;28;20175;-70
2022/12/31 06:24:58;;;;;;;5.47;5.00;;;11.30;1.00;;;;;;5051647;28;20803;-70
2022/12/31 06:27:24;;;;;;;8.40;4.43;;;11.30;1.00;;;;;;5053562;28;20179;-74
2022/12/31 06:29:49;;;;;;;3.90;3.30;;;11.30;1.00;;;;;;5052416;28;20203;-71
2022/12/31 06:32:15;;;;;;;8.57;4.00;;;11.30;1.00;;;;;;5052331;28;20163;-73
2022/12/31 06:34:41;;;;;;;4.40;4.00;;;11.30;1.00;;;;;;5051831;28;20782;-69
2022/12/31 06:37:06;;;;;;;4.73;4.33;;;11.30;1.00;;;;;;5053540;28;20247;-72
2022/12/31 06:39:32;;;;;;;6.43;3.77;;;11.30;1.00;;;;;;5053408;28;20179;-73
2022/12/31 06:41:58;;;;;;;5.00;3.83;;;11.30;1.00;;;;;;5053092;28;20266;-69
2022/12/31 06:44:23;;;;;;;5.13;4.40;;;11.30;1.00;;;;;;5052765;28;20222;-69
2022/12/31 06:46:49;;;;;;;7.83;4.67;;;11.30;1.00;;;;;;5053223;28;20194;-73
2022/12/31 06:49:15;;;;;;;4.93;4.43;;;11.30;1.00;;;;;;5053174;28;20203;-69
2022/12/31 06:51:41;;;;;;;5.00;4.60;;;11.30;1.00;;;;;;5053324;28;20430;-67
2022/12/31 06:54:07;;;;;;;8.20;5.67;;;11.30;99.90;;;;;;5052893;28;20424;-73
2022/12/31 06:56:33;;;;;;;6.37;5.77;;;11.30;1.00;;;;;;5051838;28;20213;-73
2022/12/31 06:58:59;;;;;;;6.23;5.13;;;11.20;1.00;;;;;;5053218;28;20214;-67
2022/12/31 07:01:45;;;;;;;8.00;5.47;;;11.20;1.00;;;;;;5052660;28;20262;-69
2022/12/31 07:04:41;;;;;;;7.30;5.60;;;11.30;1.00;;;;;;5052791;28;20422;-67
2022/12/31 07:07:20;;;;;;;7.03;5.33;;;11.30;1.00;;;;;;5051823;28;20896;-65
2022/12/31 07:10:04;;;;;;;7.30;5.83;;;11.40;1.00;;;;;;5052865;28;20505;-65
2022/12/31 07:12:45;;;;;;;5.73;5.20;;;11.40;1.00;;;;;;5053073;28;20387;-68
2022/12/31 07:15:18;;;;;;;7.90;5.30;;;11.40;1.00;;;;;;5052191;28;20404;-67
2022/12/31 07:18:13;;;;;;;9.80;5.97;;;11.50;1.00;;;;;;5052941;28;20381;-66
2022/12/31 07:20:39;;;;;;;6.43;5.83;;;11.50;1.00;;;;;;5052616;28;20417;-69
2022/12/31 07:23:07;;;;;;;5.40;4.90;;;11.50;1.00;;;;;;5052973;28;20723;-64
2022/12/31 07:25:34;;;;;;;6.00;5.40;;;11.50;1.00;;;;;;5052060;28;20394;-72
2022/12/31 07:27:59;;;;;;;4.83;4.33;;;11.50;1.00;;;;;;5054039;28;20423;-72
2022/12/31 07:30:35;;;;;;;5.30;4.77;;;11.50;1.00;;;;;;5055806;28;20466;-72
2022/12/31 07:33:26;;;;;;;6.33;4.57;;;11.50;1.00;;;;;;5057032;28;20188;-72
2022/12/31 07:36:23;;;;;;;5.43;4.83;;;11.40;99.90;;;;;;5055994;28;20461;-69
2022/12/31 07:39:00;;;;;;;4.57;4.17;;;11.40;99.90;;;;;;5056425;28;20392;-68
2022/12/31 07:42:03;;;;;;;6.03;4.03;;;11.30;99.90;;;;;;5056773;28;20383;-72
2022/12/31 07:44:47;;;;;;;4.90;4.50;;;11.30;99.90;;;;;;5054644;28;20911;-72
2022/12/31 07:47:19;;;;;;;5.17;4.20;;;11.30;99.90;;;;;;5056522;28;20382;-72
2022/12/31 07:49:45;;;;;;;7.23;5.10;;;11.40;99.90;;;;;;5056410;28;20416;-69
2022/12/31 07:52:11;;;;;;;4.07;3.73;;;11.40;99.90;;;;;;5056543;28;20398;-69
2022/12/31 07:54:37;;;;;;;6.10;4.57;;;11.40;99.90;;;;;;5054549;28;20920;-66
2022/12/31 07:57:03;;;;;;;4.90;4.37;;;11.40;99.90;;;;;;5055562;28;20884;-69
2022/12/31 07:59:40;;;;;;;4.33;3.97;;;11.40;99.90;;;;;;5056429;28;20159;-72
2022/12/31 08:02:31;;;;;;;5.23;4.17;;;11.40;99.90;;;;;;5056314;28;20513;-73
2022/12/31 08:05:11;;;;;;;4.73;4.40;;;11.40;99.90;;;;;;5055666;28;20888;-71
2022/12/31 08:07:47;;;;;;;4.57;3.50;;;11.30;99.90;;;;;;5055329;28;20482;-68
2022/12/31 08:10:45;;;;;;;5.80;4.03;;;11.30;99.90;;;;;;5056220;28;20384;-73
2022/12/31 08:13:11;;;;;;;4.70;4.17;;;11.40;99.90;;;;;;5056135;28;20397;-68
2022/12/31 08:15:39;;;;;;;4.77;3.60;;;11.40;99.90;;;;;;5055451;28;20491;-72
2022/12/31 08:18:06;;;;;;;4.27;3.87;;;11.30;99.90;;;;;;5056039;28;20379;-69
2022/12/31 08:20:35;;;;;;;3.60;3.33;;;11.30;99.90;;;;;;5056137;28;20404;-71
2022/12/31 08:23:06;;;;;;;5.53;3.83;;;11.30;99.90;;;;;;5056097;28;20776;-72
2022/12/31 08:25:52;;;;;;;4.17;3.87;;;11.30;99.90;;;;;;5055247;28;20931;-69
2022/12/31 08:28:54;;;;;;;3.60;3.40;;;11.30;99.90;;;;;;5055822;28;20423;-71
2022/12/31 08:31:35;;;;;;;4.23;3.63;;;11.30;99.90;;;;;;5055854;28;20382;-70
2022/12/31 08:34:24;;;;;;;3.77;3.47;;;11.30;99.90;;;;;;5054513;28;20893;-67
2022/12/31 08:37:14;;;;;;;3.93;3.63;;;11.30;99.90;;;;;;5055752;28;20391;-66
2022/12/31 08:39:58;;;;;;;3.50;3.20;;;11.40;99.90;;;;;;5055760;28;20401;-71
2022/12/31 08:42:55;;;;;;;3.93;3.73;;;11.40;99.90;;;;;;5055676;28;20463;-66
2022/12/31 08:45:37;;;;;;;3.63;3.43;;;11.40;99.90;;;;;;5054740;28;20457;-69
2022/12/31 08:48:18;;;;;;;4.30;4.00;;;11.30;99.90;;;;;;5055513;28;20415;-67
2022/12/31 08:50:45;;;;;;;7.03;5.30;;;11.40;99.90;;;;;;5055478;28;20411;-72
2022/12/31 08:53:10;;;;;;;4.03;3.73;;;11.40;99.90;;;;;;5054116;28;20426;-69
2022/12/31 08:55:37;;;;;;;3.50;3.20;;;11.30;99.90;;;;;;5054651;28;20412;-69
2022/12/31 08:58:24;;;;;;;6.60;3.07;;;11.30;99.90;;;;;;5055315;28;20174;-72
2022/12/31 09:00:55;;;;;;;4.40;3.80;;;11.30;99.90;;;;;;5055292;28;20380;-69
2022/12/31 09:03:41;;;;;;;3.70;3.40;;;11.30;99.90;;;;;;5055222;28;20428;-69
2022/12/31 09:06:19;;;;;;;3.17;2.97;;;11.20;99.90;;;;;;5053310;28;20911;-71
2022/12/31 09:09:16;;;;;;;4.50;3.33;;;11.20;99.90;;;;;;5055064;28;20449;-69
2022/12/31 09:11:54;;;;;;;2.63;2.43;;;11.20;99.90;;;;;;5055045;28;20402;-69
2022/12/31 09:14:39;;;;;;;2.80;2.60;;;11.20;99.90;;;;;;5054418;28;20392;-71
2022/12/31 09:17:29;;;;;;;2.87;2.57;;;11.20;99.90;;;;;;5055243;28;20410;-69
2022/12/31 09:19:54;;;;;;;5.87;2.30;;;11.20;99.90;;;;;;5055016;28;20372;-73
2022/12/31 09:22:20;;;;;;;2.90;2.70;;;11.20;99.90;;;;;;5053712;28;20399;-69
2022/12/31 09:24:46;;;;;;;2.90;2.70;;;11.20;99.90;;;;;;5054126;28;20187;-69
2022/12/31 09:27:21;;;;;;;3.87;3.10;;;11.20;99.90;;;;;;5054775;28;20170;-69
2022/12/31 09:30:03;;;;;;;2.43;2.23;;;11.20;99.90;;;;;;5053347;28;20534;-69
2022/12/31 09:32:47;;;;;;;2.73;2.43;;;11.20;99.90;;;;;;5054614;28;20865;-72
2022/12/31 09:35:35;;;;;;;3.17;2.87;;;11.20;99.90;;;;;;5053997;28;20414;-72
2022/12/31 09:38:12;;;;;;;2.60;2.40;;;11.20;99.90;;;;;;5054652;28;20917;-69
2022/12/31 09:41:33;;;;;;;3.70;3.40;;;11.20;99.90;;;;;;5053469;28;20411;-70
2022/12/31 09:44:35;;;;;;;3.90;2.70;;;11.10;99.90;;;;;;5053125;28;20976;-69
2022/12/31 09:47:41;;;;;;;2.50;2.30;;;11.10;99.90;;;;;;5053160;28;20773;-69
2022/12/31 09:50:31;;;;;;;2.63;2.43;;;11.10;99.90;;;;;;5052531;28;20898;-68
2022/12/31 09:53:22;;;;;;;2.80;2.60;;;11.10;99.90;;;;;;5054297;28;20397;-72
2022/12/31 09:55:57;;;;;;;2.30;2.20;;;11.10;99.90;;;;;;5053665;28;20424;-72
2022/12/31 09:58:43;;;;;;;2.27;2.17;;;11.10;99.90;;;;;;5053018;28;20413;-72
2022/12/31 10:01:50;;;;;;;3.30;2.70;;;11.10;99.90;;;;;;5054264;28;20909;-73
2022/12/31 10:04:28;;;;;;;4.17;3.00;;;11.10;99.90;;;;;;5052464;28;20782;-73
2022/12/31 10:06:59;;;;;;;3.17;2.93;;;11.10;99.90;;;;;;5053915;28;20502;-69
2022/12/31 10:09:30;;;;;;;3.40;2.20;;;11.00;99.90;;;;;;5053526;28;20480;-69
2022/12/31 10:12:15;;;;;;;1.93;1.83;;;11.00;99.90;;;;;;5052657;28;20479;-72
2022/12/31 10:14:59;;;;;;;2.53;1.90;;;11.00;99.90;;;;;;5052980;28;20388;-69
2022/12/31 10:17:43;;;;;;;2.30;2.10;;;11.00;99.90;;;;;;5052793;28;20741;-69
2022/12/31 10:20:21;;;;;;;2.30;2.03;;;11.00;99.90;;;;;;5053718;28;20734;-69
2022/12/31 10:22:55;;;;;;;2.60;2.43;;;11.00;99.90;;;;;;5052324;28;20391;-70
2022/12/31 10:25:39;;;;;;;2.63;2.53;;;11.00;99.90;;;;;;5052747;28;20395;-72
2022/12/31 10:28:20;;;;;;;3.70;2.83;;;11.10;99.90;;;;;;5053558;28;20372;-72
2022/12/31 10:31:09;;;;;;;2.70;2.50;;;11.10;99.90;;;;;;5053524;28;20371;-73
2022/12/31 10:33:41;;;;;;;2.20;2.10;;;11.10;99.90;;;;;;5051072;28;20395;-69
2022/12/31 10:36:15;;;;;;;2.63;2.50;;;11.10;99.90;;;;;;5052558;28;20364;-69
2022/12/31 10:38:55;;;;;;;2.70;2.50;;;11.00;99.90;;;;;;5040630;28;20430;-69
2022/12/31 10:42:01;;;;;;;2.17;2.07;;;11.00;99.90;;;;;;5033220;28;20372;-72
2022/12/31 10:44:57;;;;;;;2.47;2.37;;;11.00;99.90;;;;;;5031707;28;20873;-73
2022/12/31 10:47:57;;;;;;;2.80;2.60;;;11.00;99.90;;;;;;5033757;28;20794;-72
2022/12/31 10:50:40;;;;;;;3.53;2.23;;;11.00;99.90;;;;;;5053303;28;20384;-68
2022/12/31 10:53:40;;;;;;;2.10;2.00;;;11.00;99.90;;;;;;5047052;28;20417;-69
2022/12/31 10:56:08;;;;;;;2.10;1.90;;;11.00;99.90;;;;;;5032397;28;20377;-69
2022/12/31 10:58:55;;;;;;;1.63;1.53;;;11.00;99.90;;;;;;5042161;28;20406;-69
2022/12/31 11:01:31;;;;;;;4.60;2.20;;;10.90;99.90;;;;;;5053053;28;20429;-68
2022/12/31 11:04:06;;;;;;;4.13;1.83;;;10.90;99.90;;;;;;5039961;28;20416;-69
2022/12/31 11:06:47;;;;;;;3.30;1.43;;;10.80;99.90;;;;;;5049577;28;20925;-70
2022/12/31 11:09:45;;;;;;;1.83;1.60;;;10.80;99.90;;;;;;5050812;28;20428;-70
2022/12/31 11:12:48;;;;;;;1.63;1.50;;;10.80;99.90;;;;;;5053075;28;20758;-69
2022/12/31 11:15:26;;;;;;;1.57;1.47;;;10.80;99.90;;;;;;5051968;28;20411;-69
2022/12/31 11:18:05;;;;;;;1.60;1.50;;;10.70;99.90;;;;;;5049935;28;20868;-72
2022/12/31 11:20:49;;;;;;;2.40;1.40;;;10.70;99.90;;;;;;5033027;28;20781;-72
2022/12/31 11:23:43;;;;;;;1.40;1.30;;;10.70;99.90;;;;;;5036788;28;20392;-72
2022/12/31 11:26:14;;;;;;;1.67;1.57;;;10.70;99.90;;;;;;5050520;28;20483;-69
2022/12/31 11:29:18;;;;;;;3.10;1.40;;;10.80;99.90;;;;;;5047341;28;20563;-69
2022/12/31 11:32:11;;;;;;;7.83;7.23;;;10.70;99.90;;;;;;5051550;28;20480;-72
2022/12/31 11:34:37;;;;;;;1.53;1.43;;;10.70;99.90;;;;;;5050685;28;20418;-73
2022/12/31 11:37:08;;;;;;;1.23;1.13;;;10.70;99.90;;;;;;5051563;28;20383;-73
2022/12/31 11:39:58;;;;;;;1.53;1.43;;;10.60;99.90;;;;;;5034181;28;20210;-72
2022/12/31 11:42:32;;;;;;;2.10;1.40;;;10.60;99.90;;;;;;5034903;28;20407;-72
2022/12/31 11:45:17;;;;;;;2.80;1.30;;;10.60;99.90;;;;;;5051234;28;20423;-69
2022/12/31 11:48:14;;;;;;;1.87;1.77;;;10.50;99.90;;;;;;5051820;28;20393;-69
2022/12/31 11:51:08;;;;;;;1.60;1.50;;;10.50;99.90;;;;;;5052689;28;20467;-71
2022/12/31 11:53:56;;;;;;;1.40;1.30;;;10.50;99.90;;;;;;5040402;28;20399;-71
2022/12/31 11:56:33;;;;;;;2.10;2.00;;;10.50;99.90;;;;;;5031847;28;20406;-72
2022/12/31 11:59:00;;;;;;;1.70;1.60;;;10.50;99.90;;;;;;5046116;28;20431;-72
2022/12/31 12:01:42;;;;;;;1.77;1.67;;;10.50;99.90;;;;;;5052488;28;20832;-72
2022/12/31 12:04:09;;;;;;;1.50;1.40;;;10.50;99.90;;;;;;5036344;28;20421;-69
2022/12/31 12:06:35;;;;;;;1.80;1.70;;;10.50;99.90;;;;;;5031945;28;20920;-70
2022/12/31 12:09:06;;;;;;;2.30;2.20;;;10.60;99.90;;;;;;5043637;28;20515;-69
2022/12/31 12:11:36;;;;;;;1.90;1.80;;;10.60;99.90;;;;;;5052194;28;20171;-72
2022/12/31 12:14:19;;;;;;;2.40;2.13;;;10.70;99.90;;;;;;5040591;28;20432;-73
2022/12/31 12:16:45;;;;;;;2.33;2.13;;;10.80;1.00;;;;;;5036201;28;20372;-68
2022/12/31 12:19:17;;;;;;;1.90;1.80;;;10.90;1.00;;;;;;5047808;28;20911;-73
2022/12/31 12:21:47;;;;;;;2.50;2.30;;;11.00;1.00;;;;;;5054486;28;20385;-69
2022/12/31 12:24:28;;;;;;;2.53;2.33;;;11.10;1.00;;;;;;5055659;28;20476;-73
2022/12/31 12:26:56;;;;;;;2.30;2.20;;;11.30;1.00;;;;;;5050944;28;20452;-72
2022/12/31 12:29:33;;;;;;;2.47;2.30;;;11.40;1.00;;;;;;5035658;28;20453;-69
2022/12/31 12:32:02;;;;;;;3.07;1.93;;;11.40;1.00;;;;;;5040445;28;20938;-70
2022/12/31 12:34:32;;;;;;;2.23;2.03;;;11.50;1.00;;;;;;5053924;28;20406;-72
2022/12/31 12:37:00;;;;;;;2.50;2.40;;;11.60;1.00;;;;;;5051292;28;20473;-72
2022/12/31 12:39:31;;;;;;;1.93;1.83;;;11.70;1.00;;;;;;5034769;28;20877;-68
2022/12/31 12:42:02;;;;;;;4.10;3.70;;;11.70;1.00;;;;;;5038258;28;20422;-72
2022/12/31 12:44:29;;;;;;;2.70;2.47;;;11.80;1.00;;;;;;5034717;28;20523;-69
2022/12/31 12:46:55;;;;;;;3.80;2.50;;;11.90;1.00;;;;;;5034568;28;20500;-70
2022/12/31 12:49:37;;;;;;;2.20;2.10;;;11.90;1.00;;;;;;5035572;28;20412;-69
2022/12/31 12:52:03;;;;;;;2.53;2.33;;;12.00;1.00;;;;;;5042289;28;20773;-69
2022/12/31 12:54:41;;;;;;;4.43;2.40;;;12.10;1.00;;;;;;5053282;28;20415;-69
2022/12/31 12:57:21;;;;;;;2.47;2.33;;;12.10;1.00;;;;;;5051600;28;20527;-72
2022/12/31 13:00:03;;;;;;;2.33;2.17;;;12.20;1.00;;;;;;5055463;28;20396;-74
2022/12/31 13:02:53;;;;;;;1.93;1.67;;;12.20;1.00;;;;;;5054438;28;20452;-73
2022/12/31 13:05:47;;;;;;;2.67;1.93;;;12.30;1.00;;;;;;5054025;28;20889;-69
2022/12/31 13:08:44;;;;;;;2.37;2.27;;;12.40;1.00;;;;;;5036154;28;20468;-72
2022/12/31 13:11:54;;;;;;;5.07;2.50;;;12.40;1.00;;;;;;5036284;28;20373;-69
2022/12/31 13:14:47;;;;;;;2.20;2.00;;;12.50;1.00;;;;;;5051882;28;20417;-69
2022/12/31 13:17:28;;;;;;;2.07;1.97;;;12.50;1.00;;;;;;5045529;28;20418;-70
2022/12/31 13:20:11;;;;;;;1.90;1.80;;;12.50;1.00;;;;;;5035027;28;20373;-67
2022/12/31 13:22:45;;;;;;;4.90;2.07;;;12.60;1.00;;;;;;5042747;28;20827;-73
2022/12/31 13:25:32;;;;;;;1.87;1.77;;;12.60;1.00;;;;;;5035886;28;20430;-74
2022/12/31 13:28:02;;;;;;;3.77;2.10;;;12.70;1.00;;;;;;5034778;28;20376;-73
2022/12/31 13:30:41;;;;;;;4.30;1.63;;;12.70;1.00;;;;;;5048351;28;20395;-73
2022/12/31 13:33:25;;;;;;;3.10;1.83;;;12.70;1.00;;;;;;5054888;28;20374;-73
2022/12/31 13:35:57;;;;;;;3.17;1.63;;;12.70;1.00;;;;;;5037137;28;20906;-73
2022/12/31 13:38:33;;;;;;;2.00;1.80;;;12.70;1.00;;;;;;5035656;28;20405;-72
2022/12/31 13:41:11;;;;;;;2.40;1.77;;;12.80;1.00;;;;;;5054251;28;20383;-72
2022/12/31 13:43:59;;;;;;;3.33;1.73;;;12.80;1.00;;;;;;5051763;28;20395;-73